« Back
NWS Peachtree City, Ga » Text Product » MCN Terminal Aerodrome Forecast

Printer-friendly Version
Current Version              Previous Versions:   1  2  3  4  5  6  7  8  9  

Terminal Aerodrome Forecast

FTUS42 KFFC 251120
KMCN 251120Z 2512/2612 07008KT P6SM SCT040 BKN060
      TEMPO 2513/2517 SCT040 SCT060
     FM251700 07010G16KT P6SM SCT050 SCT250
     FM252300 07007KT P6SM SCT050
     FM260700 05006KT P6SM BKN015=

USA.gov is the U.S. government's official web portal to all federal, state and local government web resources and services.